sensor_id;sensor_type;location;lat;lon;timestamp;P1;durP1;ratioP1;P2;durP2;ratioP2
54408;SDS011;40315;48.620;9.828;2023-08-21T00:01:46;8.90;;;8.00;;
54408;SDS011;40315;48.620;9.828;2023-08-21T00:04:13;11.57;;;8.35;;
54408;SDS011;40315;48.620;9.828;2023-08-21T00:06:40;9.93;;;8.00;;
54408;SDS011;40315;48.620;9.828;2023-08-21T00:09:06;9.00;;;8.15;;
54408;SDS011;40315;48.620;9.828;2023-08-21T00:11:33;9.98;;;8.10;;
54408;SDS011;40315;48.620;9.828;2023-08-21T00:14:02;9.10;;;8.18;;
54408;SDS011;40315;48.620;9.828;2023-08-21T00:16:29;9.02;;;8.13;;
54408;SDS011;40315;48.620;9.828;2023-08-21T00:18:56;9.23;;;8.43;;
54408;SDS011;40315;48.620;9.828;2023-08-21T00:21:25;9.50;;;8.52;;
54408;SDS011;40315;48.620;9.828;2023-08-21T00:23:55;10.52;;;8.68;;
54408;SDS011;40315;48.620;9.828;2023-08-21T00:26:24;10.05;;;8.57;;
54408;SDS011;40315;48.620;9.828;2023-08-21T00:28:51;9.70;;;8.05;;
54408;SDS011;40315;48.620;9.828;2023-08-21T00:31:19;10.65;;;8.55;;
54408;SDS011;40315;48.620;9.828;2023-08-21T00:33:46;9.38;;;8.30;;
54408;SDS011;40315;48.620;9.828;2023-08-21T00:36:13;9.73;;;8.68;;
54408;SDS011;40315;48.620;9.828;2023-08-21T00:38:42;10.30;;;8.35;;
54408;SDS011;40315;48.620;9.828;2023-08-21T00:41:12;9.07;;;8.18;;
54408;SDS011;40315;48.620;9.828;2023-08-21T00:43:39;11.20;;;8.60;;
54408;SDS011;40315;48.620;9.828;2023-08-21T00:46:06;9.48;;;8.55;;
54408;SDS011;40315;48.620;9.828;2023-08-21T00:48:34;9.35;;;8.30;;
54408;SDS011;40315;48.620;9.828;2023-08-21T00:51:02;10.88;;;9.15;;
54408;SDS011;40315;48.620;9.828;2023-08-21T00:53:29;8.60;;;7.90;;
54408;SDS011;40315;48.620;9.828;2023-08-21T00:55:56;9.48;;;8.57;;
54408;SDS011;40315;48.620;9.828;2023-08-21T00:58:23;8.77;;;7.97;;
54408;SDS011;40315;48.620;9.828;2023-08-21T01:03:26;9.38;;;8.48;;
54408;SDS011;40315;48.620;9.828;2023-08-21T01:05:56;8.43;;;7.55;;
54408;SDS011;40315;48.620;9.828;2023-08-21T01:08:30;11.02;;;8.45;;
54408;SDS011;40315;48.620;9.828;2023-08-21T01:11:06;10.00;;;7.80;;
54408;SDS011;40315;48.620;9.828;2023-08-21T01:13:44;9.43;;;8.40;;
54408;SDS011;40315;48.620;9.828;2023-08-21T01:16:22;9.05;;;8.15;;
54408;SDS011;40315;48.620;9.828;2023-08-21T01:18:51;8.82;;;7.93;;
54408;SDS011;40315;48.620;9.828;2023-08-21T01:21:23;9.45;;;8.20;;
54408;SDS011;40315;48.620;9.828;2023-08-21T01:23:52;9.23;;;7.80;;
54408;SDS011;40315;48.620;9.828;2023-08-21T01:26:19;9.65;;;8.20;;
54408;SDS011;40315;48.620;9.828;2023-08-21T01:28:46;9.05;;;8.15;;
54408;SDS011;40315;48.620;9.828;2023-08-21T01:31:23;9.13;;;8.32;;
54408;SDS011;40315;48.620;9.828;2023-08-21T01:33:53;9.93;;;8.75;;
54408;SDS011;40315;48.620;9.828;2023-08-21T01:36:24;9.55;;;8.55;;
54408;SDS011;40315;48.620;9.828;2023-08-21T01:38:53;9.10;;;8.23;;
54408;SDS011;40315;48.620;9.828;2023-08-21T01:41:22;8.40;;;7.38;;
54408;SDS011;40315;48.620;9.828;2023-08-21T01:43:53;8.82;;;7.95;;
54408;SDS011;40315;48.620;9.828;2023-08-21T01:46:20;9.20;;;8.25;;
54408;SDS011;40315;48.620;9.828;2023-08-21T01:55:32;9.43;;;8.55;;
54408;SDS011;40315;48.620;9.828;2023-08-21T01:57:59;9.48;;;8.48;;
54408;SDS011;40315;48.620;9.828;2023-08-21T02:00:26;10.57;;;9.07;;
54408;SDS011;40315;48.620;9.828;2023-08-21T02:02:53;9.40;;;8.50;;
54408;SDS011;40315;48.620;9.828;2023-08-21T02:05:20;9.25;;;8.45;;
54408;SDS011;40315;48.620;9.828;2023-08-21T02:07:47;9.32;;;8.52;;
54408;SDS011;40315;48.620;9.828;2023-08-21T02:10:14;9.23;;;8.32;;
54408;SDS011;40315;48.620;9.828;2023-08-21T02:12:43;9.73;;;8.70;;
54408;SDS011;40315;48.620;9.828;2023-08-21T02:15:09;9.45;;;8.38;;
54408;SDS011;40315;48.620;9.828;2023-08-21T02:17:36;9.40;;;8.40;;
54408;SDS011;40315;48.620;9.828;2023-08-21T02:20:04;8.65;;;7.85;;
54408;SDS011;40315;48.620;9.828;2023-08-21T02:22:34;9.13;;;7.55;;
54408;SDS011;40315;48.620;9.828;2023-08-21T02:25:01;10.05;;;8.35;;
54408;SDS011;40315;48.620;9.828;2023-08-21T02:27:31;9.43;;;8.43;;
54408;SDS011;40315;48.620;9.828;2023-08-21T02:29:59;9.98;;;8.35;;
54408;SDS011;40315;48.620;9.828;2023-08-21T02:32:29;11.63;;;8.25;;
54408;SDS011;40315;48.620;9.828;2023-08-21T02:34:56;10.15;;;8.38;;
54408;SDS011;40315;48.620;9.828;2023-08-21T02:37:22;9.63;;;8.60;;
54408;SDS011;40315;48.620;9.828;2023-08-21T02:39:49;9.45;;;8.40;;
54408;SDS011;40315;48.620;9.828;2023-08-21T02:42:16;9.02;;;8.13;;
54408;SDS011;40315;48.620;9.828;2023-08-21T02:44:43;8.70;;;7.90;;
54408;SDS011;40315;48.620;9.828;2023-08-21T02:47:12;9.27;;;8.40;;
54408;SDS011;40315;48.620;9.828;2023-08-21T02:49:38;8.80;;;7.90;;
54408;SDS011;40315;48.620;9.828;2023-08-21T02:52:06;8.80;;;7.88;;
54408;SDS011;40315;48.620;9.828;2023-08-21T02:54:33;8.95;;;8.15;;
54408;SDS011;40315;48.620;9.828;2023-08-21T02:57:00;10.85;;;7.93;;
54408;SDS011;40315;48.620;9.828;2023-08-21T02:59:27;9.05;;;8.15;;
54408;SDS011;40315;48.620;9.828;2023-08-21T03:01:56;8.93;;;8.02;;
54408;SDS011;40315;48.620;9.828;2023-08-21T03:04:24;10.32;;;8.23;;
54408;SDS011;40315;48.620;9.828;2023-08-21T03:06:53;8.57;;;7.78;;
54408;SDS011;40315;48.620;9.828;2023-08-21T03:09:20;9.27;;;8.35;;
54408;SDS011;40315;48.620;9.828;2023-08-21T03:11:49;10.27;;;8.60;;
54408;SDS011;40315;48.620;9.828;2023-08-21T03:14:16;9.45;;;8.07;;
54408;SDS011;40315;48.620;9.828;2023-08-21T03:16:45;10.25;;;8.98;;
54408;SDS011;40315;48.620;9.828;2023-08-21T03:19:12;9.80;;;8.90;;
54408;SDS011;40315;48.620;9.828;2023-08-21T03:21:41;9.52;;;8.52;;
54408;SDS011;40315;48.620;9.828;2023-08-21T03:24:08;12.25;;;9.00;;
54408;SDS011;40315;48.620;9.828;2023-08-21T03:26:37;9.75;;;8.75;;
54408;SDS011;40315;48.620;9.828;2023-08-21T03:29:04;9.75;;;8.75;;
54408;SDS011;40315;48.620;9.828;2023-08-21T03:31:31;9.50;;;8.50;;
54408;SDS011;40315;48.620;9.828;2023-08-21T03:33:58;9.70;;;8.38;;
54408;SDS011;40315;48.620;9.828;2023-08-21T03:36:27;12.73;;;9.07;;
54408;SDS011;40315;48.620;9.828;2023-08-21T03:38:59;10.50;;;9.20;;
54408;SDS011;40315;48.620;9.828;2023-08-21T03:41:28;8.93;;;8.05;;
54408;SDS011;40315;48.620;9.828;2023-08-21T03:43:55;9.50;;;8.50;;
54408;SDS011;40315;48.620;9.828;2023-08-21T03:46:22;8.55;;;7.75;;
54408;SDS011;40315;48.620;9.828;2023-08-21T03:48:49;8.80;;;7.97;;
54408;SDS011;40315;48.620;9.828;2023-08-21T03:51:22;9.13;;;8.23;;
54408;SDS011;40315;48.620;9.828;2023-08-21T03:53:50;9.00;;;8.15;;
54408;SDS011;40315;48.620;9.828;2023-08-21T03:56:19;8.90;;;8.00;;
54408;SDS011;40315;48.620;9.828;2023-08-21T03:58:49;9.02;;;8.13;;
54408;SDS011;40315;48.620;9.828;2023-08-21T04:01:16;8.57;;;7.75;;
54408;SDS011;40315;48.620;9.828;2023-08-21T04:03:43;10.00;;;8.20;;
54408;SDS011;40315;48.620;9.828;2023-08-21T04:06:11;9.07;;;7.88;;
54408;SDS011;40315;48.620;9.828;2023-08-21T04:08:38;9.43;;;8.38;;
54408;SDS011;40315;48.620;9.828;2023-08-21T04:11:05;9.38;;;8.57;;
54408;SDS011;40315;48.620;9.828;2023-08-21T04:13:34;10.32;;;8.40;;
54408;SDS011;40315;48.620;9.828;2023-08-21T04:16:01;9.43;;;8.63;;
54408;SDS011;40315;48.620;9.828;2023-08-21T04:18:27;8.98;;;8.07;;
54408;SDS011;40315;48.620;9.828;2023-08-21T04:20:54;10.07;;;9.05;;
54408;SDS011;40315;48.620;9.828;2023-08-21T04:23:21;9.82;;;8.23;;
54408;SDS011;40315;48.620;9.828;2023-08-21T04:25:51;8.95;;;8.05;;
54408;SDS011;40315;48.620;9.828;2023-08-21T04:28:17;10.70;;;8.57;;
54408;SDS011;40315;48.620;9.828;2023-08-21T04:30:46;9.30;;;8.40;;
54408;SDS011;40315;48.620;9.828;2023-08-21T04:33:13;9.80;;;8.88;;
54408;SDS011;40315;48.620;9.828;2023-08-21T04:35:39;10.45;;;9.35;;
54408;SDS011;40315;48.620;9.828;2023-08-21T04:38:06;9.40;;;8.50;;
54408;SDS011;40315;48.620;9.828;2023-08-21T04:40:34;9.48;;;8.57;;
54408;SDS011;40315;48.620;9.828;2023-08-21T04:43:01;10.68;;;9.05;;
54408;SDS011;40315;48.620;9.828;2023-08-21T04:45:28;11.13;;;9.07;;
54408;SDS011;40315;48.620;9.828;2023-08-21T04:47:56;11.13;;;8.88;;
54408;SDS011;40315;48.620;9.828;2023-08-21T04:50:23;9.13;;;8.07;;
54408;SDS011;40315;48.620;9.828;2023-08-21T04:52:50;11.80;;;8.88;;
54408;SDS011;40315;48.620;9.828;2023-08-21T04:55:17;9.32;;;8.43;;
54408;SDS011;40315;48.620;9.828;2023-08-21T04:57:47;9.98;;;8.73;;
54408;SDS011;40315;48.620;9.828;2023-08-21T05:00:14;10.55;;;9.38;;
54408;SDS011;40315;48.620;9.828;2023-08-21T05:02:44;9.23;;;8.15;;
54408;SDS011;40315;48.620;9.828;2023-08-21T05:05:15;9.50;;;8.60;;
54408;SDS011;40315;48.620;9.828;2023-08-21T05:07:43;11.77;;;8.63;;
54408;SDS011;40315;48.620;9.828;2023-08-21T05:10:11;10.52;;;8.23;;
54408;SDS011;40315;48.620;9.828;2023-08-21T05:12:39;8.90;;;8.00;;
54408;SDS011;40315;48.620;9.828;2023-08-21T05:15:09;9.10;;;8.20;;
54408;SDS011;40315;48.620;9.828;2023-08-21T05:17:36;9.38;;;8.32;;
54408;SDS011;40315;48.620;9.828;2023-08-21T05:20:03;9.60;;;8.18;;
54408;SDS011;40315;48.620;9.828;2023-08-21T05:22:33;10.38;;;8.38;;
54408;SDS011;40315;48.620;9.828;2023-08-21T05:25:02;8.45;;;7.75;;
54408;SDS011;40315;48.620;9.828;2023-08-21T05:27:29;11.25;;;8.68;;
54408;SDS011;40315;48.620;9.828;2023-08-21T05:29:56;11.32;;;7.85;;
54408;SDS011;40315;48.620;9.828;2023-08-21T05:32:23;8.25;;;7.45;;
54408;SDS011;40315;48.620;9.828;2023-08-21T05:34:50;9.35;;;8.40;;
54408;SDS011;40315;48.620;9.828;2023-08-21T05:37:17;8.55;;;7.72;;
54408;SDS011;40315;48.620;9.828;2023-08-21T05:39:45;10.00;;;7.72;;
54408;SDS011;40315;48.620;9.828;2023-08-21T05:42:14;8.55;;;7.65;;
54408;SDS011;40315;48.620;9.828;2023-08-21T05:44:41;8.23;;;7.43;;
54408;SDS011;40315;48.620;9.828;2023-08-21T05:47:08;8.48;;;7.38;;
54408;SDS011;40315;48.620;9.828;2023-08-21T05:49:35;8.90;;;8.00;;
54408;SDS011;40315;48.620;9.828;2023-08-21T05:52:05;7.22;;;6.63;;
54408;SDS011;40315;48.620;9.828;2023-08-21T05:54:32;9.60;;;7.85;;
54408;SDS011;40315;48.620;9.828;2023-08-21T05:57:00;10.65;;;8.15;;
54408;SDS011;40315;48.620;9.828;2023-08-21T05:59:29;8.85;;;8.00;;
54408;SDS011;40315;48.620;9.828;2023-08-21T06:02:01;8.82;;;8.02;;
54408;SDS011;40315;48.620;9.828;2023-08-21T06:04:28;9.07;;;8.27;;
54408;SDS011;40315;48.620;9.828;2023-08-21T06:07:01;10.75;;;8.93;;
54408;SDS011;40315;48.620;9.828;2023-08-21T06:09:28;9.70;;;8.70;;
54408;SDS011;40315;48.620;9.828;2023-08-21T06:11:57;10.52;;;8.20;;
54408;SDS011;40315;48.620;9.828;2023-08-21T06:14:25;8.45;;;7.65;;
54408;SDS011;40315;48.620;9.828;2023-08-21T06:16:56;11.35;;;8.40;;
54408;SDS011;40315;48.620;9.828;2023-08-21T06:19:23;11.20;;;8.80;;
54408;SDS011;40315;48.620;9.828;2023-08-21T06:21:50;10.52;;;7.85;;
54408;SDS011;40315;48.620;9.828;2023-08-21T06:24:17;9.15;;;8.05;;
54408;SDS011;40315;48.620;9.828;2023-08-21T06:26:44;11.27;;;8.70;;
54408;SDS011;40315;48.620;9.828;2023-08-21T06:29:14;9.02;;;8.23;;
54408;SDS011;40315;48.620;9.828;2023-08-21T06:31:44;8.70;;;7.80;;
54408;SDS011;40315;48.620;9.828;2023-08-21T06:34:12;9.10;;;7.38;;
54408;SDS011;40315;48.620;9.828;2023-08-21T06:36:39;7.93;;;7.22;;
54408;SDS011;40315;48.620;9.828;2023-08-21T06:39:05;8.73;;;7.40;;
54408;SDS011;40315;48.620;9.828;2023-08-21T06:41:32;9.13;;;7.28;;
54408;SDS011;40315;48.620;9.828;2023-08-21T06:43:59;8.10;;;7.38;;
54408;SDS011;40315;48.620;9.828;2023-08-21T06:46:29;8.23;;;7.40;;
54408;SDS011;40315;48.620;9.828;2023-08-21T06:48:57;8.43;;;7.63;;
54408;SDS011;40315;48.620;9.828;2023-08-21T06:51:24;8.80;;;7.63;;
54408;SDS011;40315;48.620;9.828;2023-08-21T06:53:53;9.15;;;7.15;;
54408;SDS011;40315;48.620;9.828;2023-08-21T06:56:20;8.77;;;7.90;;
54408;SDS011;40315;48.620;9.828;2023-08-21T06:58:49;8.05;;;7.25;;
54408;SDS011;40315;48.620;9.828;2023-08-21T07:01:17;7.65;;;6.90;;
54408;SDS011;40315;48.620;9.828;2023-08-21T07:03:46;10.07;;;7.00;;
54408;SDS011;40315;48.620;9.828;2023-08-21T07:06:14;8.00;;;7.20;;
54408;SDS011;40315;48.620;9.828;2023-08-21T07:08:41;7.78;;;7.00;;
54408;SDS011;40315;48.620;9.828;2023-08-21T07:11:08;7.65;;;6.95;;
54408;SDS011;40315;48.620;9.828;2023-08-21T07:13:35;7.70;;;6.90;;
54408;SDS011;40315;48.620;9.828;2023-08-21T07:16:02;7.70;;;6.93;;
54408;SDS011;40315;48.620;9.828;2023-08-21T07:18:33;7.38;;;6.70;;
54408;SDS011;40315;48.620;9.828;2023-08-21T07:21:00;8.68;;;7.25;;
54408;SDS011;40315;48.620;9.828;2023-08-21T07:23:30;9.02;;;7.22;;
54408;SDS011;40315;48.620;9.828;2023-08-21T07:25:57;11.20;;;7.22;;
54408;SDS011;40315;48.620;9.828;2023-08-21T07:28:24;9.68;;;7.70;;
54408;SDS011;40315;48.620;9.828;2023-08-21T07:30:54;9.15;;;7.47;;
54408;SDS011;40315;48.620;9.828;2023-08-21T07:33:24;8.07;;;7.25;;
54408;SDS011;40315;48.620;9.828;2023-08-21T07:35:57;8.05;;;7.25;;
54408;SDS011;40315;48.620;9.828;2023-08-21T07:38:25;8.50;;;7.55;;
54408;SDS011;40315;48.620;9.828;2023-08-21T07:41:01;8.80;;;7.47;;
54408;SDS011;40315;48.620;9.828;2023-08-21T07:43:29;7.68;;;6.93;;
54408;SDS011;40315;48.620;9.828;2023-08-21T07:45:56;7.70;;;7.03;;
54408;SDS011;40315;48.620;9.828;2023-08-21T07:48:23;7.60;;;6.78;;
54408;SDS011;40315;48.620;9.828;2023-08-21T07:50:52;8.68;;;7.68;;
54408;SDS011;40315;48.620;9.828;2023-08-21T07:53:19;8.30;;;7.50;;
54408;SDS011;40315;48.620;9.828;2023-08-21T07:55:46;7.85;;;7.05;;
54408;SDS011;40315;48.620;9.828;2023-08-21T07:58:15;8.35;;;7.55;;
54408;SDS011;40315;48.620;9.828;2023-08-21T08:00:42;8.80;;;7.78;;
54408;SDS011;40315;48.620;9.828;2023-08-21T08:03:09;8.35;;;7.45;;
54408;SDS011;40315;48.620;9.828;2023-08-21T08:05:37;8.63;;;7.72;;
54408;SDS011;40315;48.620;9.828;2023-08-21T08:08:04;8.52;;;7.55;;
54408;SDS011;40315;48.620;9.828;2023-08-21T08:10:31;8.43;;;7.63;;
54408;SDS011;40315;48.620;9.828;2023-08-21T08:12:58;8.02;;;7.22;;
54408;SDS011;40315;48.620;9.828;2023-08-21T08:15:26;9.68;;;7.60;;
54408;SDS011;40315;48.620;9.828;2023-08-21T08:17:53;8.00;;;7.25;;
54408;SDS011;40315;48.620;9.828;2023-08-21T08:20:23;7.65;;;6.95;;
54408;SDS011;40315;48.620;9.828;2023-08-21T08:22:50;10.18;;;8.40;;
54408;SDS011;40315;48.620;9.828;2023-08-21T08:25:19;10.38;;;7.68;;
54408;SDS011;40315;48.620;9.828;2023-08-21T08:27:48;11.27;;;7.72;;
54408;SDS011;40315;48.620;9.828;2023-08-21T08:30:15;8.63;;;7.55;;
54408;SDS011;40315;48.620;9.828;2023-08-21T08:32:44;8.70;;;7.40;;
54408;SDS011;40315;48.620;9.828;2023-08-21T08:35:11;9.23;;;7.40;;
54408;SDS011;40315;48.620;9.828;2023-08-21T08:37:40;8.70;;;7.90;;
54408;SDS011;40315;48.620;9.828;2023-08-21T08:40:07;8.68;;;7.78;;
54408;SDS011;40315;48.620;9.828;2023-08-21T08:42:37;9.15;;;7.88;;
54408;SDS011;40315;48.620;9.828;2023-08-21T08:45:05;10.05;;;7.43;;
54408;SDS011;40315;48.620;9.828;2023-08-21T08:47:33;8.00;;;7.20;;
54408;SDS011;40315;48.620;9.828;2023-08-21T08:50:02;8.75;;;7.95;;
54408;SDS011;40315;48.620;9.828;2023-08-21T08:52:31;9.02;;;7.90;;
54408;SDS011;40315;48.620;9.828;2023-08-21T08:55:01;9.55;;;7.75;;
54408;SDS011;40315;48.620;9.828;2023-08-21T08:57:31;10.15;;;8.05;;
54408;SDS011;40315;48.620;9.828;2023-08-21T08:59:59;9.30;;;8.40;;
54408;SDS011;40315;48.620;9.828;2023-08-21T09:02:26;8.75;;;7.85;;
54408;SDS011;40315;48.620;9.828;2023-08-21T09:04:53;9.07;;;7.53;;
54408;SDS011;40315;48.620;9.828;2023-08-21T09:07:21;9.18;;;8.20;;
54408;SDS011;40315;48.620;9.828;2023-08-21T09:09:50;10.57;;;7.65;;
54408;SDS011;40315;48.620;9.828;2023-08-21T09:12:18;8.52;;;7.55;;
54408;SDS011;40315;48.620;9.828;2023-08-21T09:14:48;9.55;;;7.88;;
54408;SDS011;40315;48.620;9.828;2023-08-21T09:17:15;9.05;;;7.45;;
54408;SDS011;40315;48.620;9.828;2023-08-21T09:19:44;9.68;;;7.75;;
54408;SDS011;40315;48.620;9.828;2023-08-21T09:22:11;10.13;;;7.15;;
54408;SDS011;40315;48.620;9.828;2023-08-21T09:24:59;8.70;;;7.90;;
54408;SDS011;40315;48.620;9.828;2023-08-21T09:27:32;8.75;;;7.72;;
54408;SDS011;40315;48.620;9.828;2023-08-21T09:30:00;9.20;;;7.78;;
54408;SDS011;40315;48.620;9.828;2023-08-21T09:32:32;10.43;;;7.75;;
54408;SDS011;40315;48.620;9.828;2023-08-21T09:35:20;8.88;;;8.02;;
54408;SDS011;40315;48.620;9.828;2023-08-21T09:37:47;10.10;;;9.10;;
54408;SDS011;40315;48.620;9.828;2023-08-21T09:40:16;8.82;;;8.05;;
54408;SDS011;40315;48.620;9.828;2023-08-21T09:42:43;8.35;;;7.53;;
54408;SDS011;40315;48.620;9.828;2023-08-21T09:45:10;8.68;;;7.78;;
54408;SDS011;40315;48.620;9.828;2023-08-21T09:47:37;8.88;;;7.95;;
54408;SDS011;40315;48.620;9.828;2023-08-21T09:50:05;10.10;;;8.45;;
54408;SDS011;40315;48.620;9.828;2023-08-21T09:52:35;8.88;;;7.82;;
54408;SDS011;40315;48.620;9.828;2023-08-21T09:55:02;9.00;;;8.10;;
54408;SDS011;40315;48.620;9.828;2023-08-21T09:57:32;10.27;;;8.25;;
54408;SDS011;40315;48.620;9.828;2023-08-21T10:00:00;8.48;;;7.68;;
54408;SDS011;40315;48.620;9.828;2023-08-21T10:02:41;9.02;;;8.23;;
54408;SDS011;40315;48.620;9.828;2023-08-21T10:05:13;9.05;;;8.05;;
54408;SDS011;40315;48.620;9.828;2023-08-21T10:07:42;10.32;;;8.00;;
54408;SDS011;40315;48.620;9.828;2023-08-21T10:10:15;8.10;;;7.30;;
54408;SDS011;40315;48.620;9.828;2023-08-21T10:12:45;8.15;;;7.35;;
54408;SDS011;40315;48.620;9.828;2023-08-21T10:15:14;8.18;;;7.47;;
54408;SDS011;40315;48.620;9.828;2023-08-21T10:17:42;8.35;;;7.60;;
54408;SDS011;40315;48.620;9.828;2023-08-21T10:20:10;8.63;;;7.80;;
54408;SDS011;40315;48.620;9.828;2023-08-21T10:22:38;8.57;;;7.75;;
54408;SDS011;40315;48.620;9.828;2023-08-21T10:25:15;8.65;;;7.78;;
54408;SDS011;40315;48.620;9.828;2023-08-21T10:27:42;8.27;;;7.30;;
54408;SDS011;40315;48.620;9.828;2023-08-21T10:30:19;8.00;;;7.18;;
54408;SDS011;40315;48.620;9.828;2023-08-21T10:32:50;7.57;;;6.78;;
54408;SDS011;40315;48.620;9.828;2023-08-21T10:35:18;7.70;;;7.00;;
54408;SDS011;40315;48.620;9.828;2023-08-21T10:40:32;7.57;;;6.88;;
54408;SDS011;40315;48.620;9.828;2023-08-21T10:43:00;7.60;;;6.80;;
54408;SDS011;40315;48.620;9.828;2023-08-21T10:45:29;7.68;;;6.80;;
54408;SDS011;40315;48.620;9.828;2023-08-21T10:47:56;7.65;;;6.90;;
54408;SDS011;40315;48.620;9.828;2023-08-21T10:50:23;7.20;;;6.10;;
54408;SDS011;40315;48.620;9.828;2023-08-21T10:52:51;7.25;;;6.30;;
54408;SDS011;40315;48.620;9.828;2023-08-21T10:55:19;8.90;;;6.38;;
54408;SDS011;40315;48.620;9.828;2023-08-21T10:57:46;6.88;;;6.18;;
54408;SDS011;40315;48.620;9.828;2023-08-21T11:00:14;7.55;;;5.75;;
54408;SDS011;40315;48.620;9.828;2023-08-21T11:02:45;6.40;;;5.65;;
54408;SDS011;40315;48.620;9.828;2023-08-21T11:05:13;8.85;;;6.45;;
54408;SDS011;40315;48.620;9.828;2023-08-21T11:07:41;6.60;;;6.00;;
54408;SDS011;40315;48.620;9.828;2023-08-21T11:10:11;7.22;;;6.18;;
54408;SDS011;40315;48.620;9.828;2023-08-21T11:12:48;6.47;;;5.80;;
54408;SDS011;40315;48.620;9.828;2023-08-21T11:15:16;6.95;;;5.78;;
54408;SDS011;40315;48.620;9.828;2023-08-21T11:17:51;7.10;;;6.07;;
54408;SDS011;40315;48.620;9.828;2023-08-21T11:20:27;6.88;;;5.70;;
54408;SDS011;40315;48.620;9.828;2023-08-21T11:22:56;7.10;;;5.57;;
54408;SDS011;40315;48.620;9.828;2023-08-21T11:25:23;6.88;;;6.22;;
54408;SDS011;40315;48.620;9.828;2023-08-21T11:27:50;8.23;;;5.80;;
54408;SDS011;40315;48.620;9.828;2023-08-21T11:30:19;6.90;;;5.72;;
54408;SDS011;40315;48.620;9.828;2023-08-21T11:32:48;8.52;;;5.50;;
54408;SDS011;40315;48.620;9.828;2023-08-21T11:35:17;7.38;;;6.22;;
54408;SDS011;40315;48.620;9.828;2023-08-21T11:37:44;9.95;;;5.95;;
54408;SDS011;40315;48.620;9.828;2023-08-21T11:40:12;7.32;;;5.40;;
54408;SDS011;40315;48.620;9.828;2023-08-21T11:42:39;6.63;;;6.05;;
54408;SDS011;40315;48.620;9.828;2023-08-21T11:45:07;7.32;;;6.25;;
54408;SDS011;40315;48.620;9.828;2023-08-21T11:47:36;8.52;;;5.68;;
54408;SDS011;40315;48.620;9.828;2023-08-21T11:50:03;8.10;;;6.32;;
54408;SDS011;40315;48.620;9.828;2023-08-21T11:52:32;8.40;;;5.38;;
54408;SDS011;40315;48.620;9.828;2023-08-21T11:55:06;6.32;;;5.72;;
54408;SDS011;40315;48.620;9.828;2023-08-21T11:57:34;7.20;;;5.60;;
54408;SDS011;40315;48.620;9.828;2023-08-21T12:00:01;6.65;;;5.85;;
54408;SDS011;40315;48.620;9.828;2023-08-21T12:02:31;7.10;;;6.20;;
54408;SDS011;40315;48.620;9.828;2023-08-21T12:05:01;7.55;;;6.68;;
54408;SDS011;40315;48.620;9.828;2023-08-21T12:07:31;6.78;;;6.07;;
54408;SDS011;40315;48.620;9.828;2023-08-21T12:09:59;7.00;;;6.30;;
54408;SDS011;40315;48.620;9.828;2023-08-21T12:12:26;7.18;;;6.40;;
54408;SDS011;40315;48.620;9.828;2023-08-21T12:14:53;7.88;;;6.40;;
54408;SDS011;40315;48.620;9.828;2023-08-21T12:17:22;7.07;;;6.18;;
54408;SDS011;40315;48.620;9.828;2023-08-21T12:19:49;10.13;;;5.78;;
54408;SDS011;40315;48.620;9.828;2023-08-21T12:22:16;6.00;;;5.50;;
54408;SDS011;40315;48.620;9.828;2023-08-21T12:24:44;9.57;;;5.95;;
54408;SDS011;40315;48.620;9.828;2023-08-21T12:27:11;10.18;;;6.50;;
54408;SDS011;40315;48.620;9.828;2023-08-21T12:29:38;8.88;;;6.25;;
54408;SDS011;40315;48.620;9.828;2023-08-21T12:32:05;7.47;;;6.00;;
54408;SDS011;40315;48.620;9.828;2023-08-21T12:34:32;6.63;;;6.03;;
54408;SDS011;40315;48.620;9.828;2023-08-21T12:36:59;8.27;;;6.35;;
54408;SDS011;40315;48.620;9.828;2023-08-21T12:39:28;8.07;;;6.05;;
54408;SDS011;40315;48.620;9.828;2023-08-21T12:41:59;7.05;;;6.32;;
54408;SDS011;40315;48.620;9.828;2023-08-21T12:44:28;7.10;;;6.40;;
54408;SDS011;40315;48.620;9.828;2023-08-21T12:46:55;8.57;;;6.40;;
54408;SDS011;40315;48.620;9.828;2023-08-21T12:49:22;7.05;;;6.35;;
54408;SDS011;40315;48.620;9.828;2023-08-21T12:51:49;7.28;;;6.30;;
54408;SDS011;40315;48.620;9.828;2023-08-21T12:54:16;6.70;;;6.10;;
54408;SDS011;40315;48.620;9.828;2023-08-21T12:56:43;7.75;;;6.38;;
54408;SDS011;40315;48.620;9.828;2023-08-21T12:59:12;6.80;;;6.07;;
54408;SDS011;40315;48.620;9.828;2023-08-21T13:01:41;6.95;;;6.20;;
54408;SDS011;40315;48.620;9.828;2023-08-21T13:04:08;7.28;;;5.88;;
54408;SDS011;40315;48.620;9.828;2023-08-21T13:06:35;6.78;;;6.00;;
54408;SDS011;40315;48.620;9.828;2023-08-21T13:09:02;8.75;;;6.32;;
54408;SDS011;40315;48.620;9.828;2023-08-21T13:11:30;7.45;;;6.65;;
54408;SDS011;40315;48.620;9.828;2023-08-21T13:13:57;6.22;;;5.63;;
54408;SDS011;40315;48.620;9.828;2023-08-21T13:16:26;7.50;;;6.80;;
54408;SDS011;40315;48.620;9.828;2023-08-21T13:18:53;6.13;;;5.63;;
54408;SDS011;40315;48.620;9.828;2023-08-21T13:21:20;7.05;;;6.35;;
54408;SDS011;40315;48.620;9.828;2023-08-21T13:23:47;6.85;;;6.15;;
54408;SDS011;40315;48.620;9.828;2023-08-21T13:26:13;7.80;;;6.18;;
54408;SDS011;40315;48.620;9.828;2023-08-21T13:28:41;7.60;;;6.13;;
54408;SDS011;40315;48.620;9.828;2023-08-21T13:31:08;6.47;;;5.88;;
54408;SDS011;40315;48.620;9.828;2023-08-21T13:33:45;6.85;;;5.97;;
54408;SDS011;40315;48.620;9.828;2023-08-21T13:36:12;7.82;;;6.63;;
54408;SDS011;40315;48.620;9.828;2023-08-21T13:38:39;6.68;;;5.90;;
54408;SDS011;40315;48.620;9.828;2023-08-21T13:41:06;6.20;;;5.60;;
54408;SDS011;40315;48.620;9.828;2023-08-21T13:43:33;6.95;;;6.18;;
54408;SDS011;40315;48.620;9.828;2023-08-21T13:46:00;8.43;;;6.57;;
54408;SDS011;40315;48.620;9.828;2023-08-21T13:48:31;7.43;;;6.28;;
54408;SDS011;40315;48.620;9.828;2023-08-21T13:50:59;6.80;;;6.20;;
54408;SDS011;40315;48.620;9.828;2023-08-21T13:53:26;7.45;;;6.20;;
54408;SDS011;40315;48.620;9.828;2023-08-21T13:55:55;8.98;;;6.50;;
54408;SDS011;40315;48.620;9.828;2023-08-21T13:58:22;7.47;;;6.57;;
54408;SDS011;40315;48.620;9.828;2023-08-21T14:00:49;8.27;;;6.90;;
54408;SDS011;40315;48.620;9.828;2023-08-21T14:03:16;9.00;;;6.65;;
54408;SDS011;40315;48.620;9.828;2023-08-21T14:05:45;9.50;;;6.47;;
54408;SDS011;40315;48.620;9.828;2023-08-21T14:08:14;6.85;;;6.25;;
54408;SDS011;40315;48.620;9.828;2023-08-21T14:10:41;7.45;;;6.65;;
54408;SDS011;40315;48.620;9.828;2023-08-21T14:13:10;7.68;;;6.32;;
54408;SDS011;40315;48.620;9.828;2023-08-21T14:15:39;12.20;;;6.72;;
54408;SDS011;40315;48.620;9.828;2023-08-21T14:18:06;7.32;;;6.40;;
54408;SDS011;40315;48.620;9.828;2023-08-21T14:20:35;7.38;;;6.15;;
54408;SDS011;40315;48.620;9.828;2023-08-21T14:23:02;10.07;;;6.22;;
54408;SDS011;40315;48.620;9.828;2023-08-21T14:25:33;7.40;;;6.63;;
54408;SDS011;40315;48.620;9.828;2023-08-21T14:28:00;8.88;;;6.90;;
54408;SDS011;40315;48.620;9.828;2023-08-21T14:30:26;7.22;;;6.25;;
54408;SDS011;40315;48.620;9.828;2023-08-21T14:32:53;7.10;;;6.40;;
54408;SDS011;40315;48.620;9.828;2023-08-21T14:35:20;8.32;;;6.55;;
54408;SDS011;40315;48.620;9.828;2023-08-21T14:37:47;8.48;;;6.18;;
54408;SDS011;40315;48.620;9.828;2023-08-21T14:40:14;7.30;;;6.60;;
54408;SDS011;40315;48.620;9.828;2023-08-21T14:42:42;8.55;;;6.53;;
54408;SDS011;40315;48.620;9.828;2023-08-21T14:45:12;9.10;;;6.57;;
54408;SDS011;40315;48.620;9.828;2023-08-21T14:47:41;7.00;;;6.18;;
54408;SDS011;40315;48.620;9.828;2023-08-21T14:50:08;7.72;;;6.63;;
54408;SDS011;40315;48.620;9.828;2023-08-21T14:52:35;8.88;;;6.63;;
54408;SDS011;40315;48.620;9.828;2023-08-21T14:55:02;6.75;;;6.13;;
54408;SDS011;40315;48.620;9.828;2023-08-21T14:57:32;7.07;;;6.38;;
54408;SDS011;40315;48.620;9.828;2023-08-21T15:00:03;7.07;;;6.38;;
54408;SDS011;40315;48.620;9.828;2023-08-21T15:02:31;7.53;;;6.47;;
54408;SDS011;40315;48.620;9.828;2023-08-21T15:04:58;7.47;;;6.28;;